createdAt,value
2018-12-22T00:01:12.535Z,5.70
2018-12-22T00:03:42.682Z,5.70
2018-12-22T00:06:12.821Z,5.70
2018-12-22T00:08:42.899Z,5.60
2018-12-22T00:11:13.017Z,5.60
2018-12-22T00:13:43.160Z,5.60
2018-12-22T00:16:13.428Z,5.70
2018-12-22T00:18:43.577Z,5.70
2018-12-22T00:21:13.780Z,5.70
2018-12-22T00:23:43.970Z,5.70
2018-12-22T00:26:14.130Z,5.70
2018-12-22T00:28:44.284Z,5.70
2018-12-22T00:31:14.346Z,5.70
2018-12-22T00:33:44.445Z,5.70
2018-12-22T00:36:14.591Z,5.70
2018-12-22T00:38:44.721Z,5.80
2018-12-22T00:41:14.670Z,5.90
2018-12-22T00:43:44.888Z,5.80
2018-12-22T00:46:15.080Z,5.70
2018-12-22T00:48:45.330Z,5.70
2018-12-22T00:51:15.642Z,5.60
2018-12-22T00:53:45.671Z,5.70
2018-12-22T00:56:15.713Z,5.70
2018-12-22T00:58:46.094Z,5.70
2018-12-22T01:01:16.264Z,5.70
2018-12-22T01:03:46.540Z,5.70
2018-12-22T01:06:16.572Z,5.70
2018-12-22T01:08:46.754Z,5.60
2018-12-22T01:11:16.900Z,5.60
2018-12-22T01:13:47.243Z,5.60
2018-12-22T01:16:17.393Z,5.60
2018-12-22T01:18:47.610Z,5.60
2018-12-22T01:21:17.682Z,5.60
2018-12-22T01:23:48.118Z,5.60
2018-12-22T01:26:18.138Z,5.60
2018-12-22T01:28:48.250Z,5.60
2018-12-22T01:31:18.222Z,5.70
2018-12-22T01:33:48.605Z,5.70
2018-12-22T01:36:18.564Z,5.70
2018-12-22T01:38:48.715Z,5.70
2018-12-22T01:41:18.756Z,5.70
2018-12-22T01:43:49.086Z,5.70
2018-12-22T01:46:19.068Z,5.80
2018-12-22T01:48:49.227Z,5.90
2018-12-22T01:51:19.331Z,5.80
2018-12-22T01:53:49.525Z,5.80
2018-12-22T01:56:19.514Z,5.80
2018-12-22T01:58:49.838Z,5.70
2018-12-22T02:01:19.966Z,5.70
2018-12-22T02:03:50.197Z,5.60
2018-12-22T02:06:20.181Z,5.80
2018-12-22T02:08:50.486Z,5.80
2018-12-22T02:11:20.691Z,5.90
2018-12-22T02:13:50.752Z,5.90
2018-12-22T02:16:20.815Z,5.80
2018-12-22T02:18:50.715Z,5.80
2018-12-22T02:21:20.798Z,5.80
2018-12-22T02:23:50.884Z,5.90
2018-12-22T02:26:21.166Z,6.00
2018-12-22T02:28:56.591Z,6.00
2018-12-22T02:31:23.443Z,6.00
2018-12-22T02:33:53.655Z,6.00
2018-12-22T02:36:24.045Z,6.00
2018-12-22T02:38:54.244Z,5.90
2018-12-22T02:41:24.345Z,6.00
2018-12-22T02:43:54.355Z,6.00
2018-12-22T02:46:24.593Z,6.10
2018-12-22T02:48:54.713Z,6.10
2018-12-22T02:51:24.979Z,6.10
2018-12-22T02:53:56.202Z,6.20
2018-12-22T02:56:26.586Z,6.20
2018-12-22T02:59:05.635Z,6.10
2018-12-22T03:01:28.898Z,6.10
2018-12-22T03:03:59.447Z,6.10
2018-12-22T03:06:29.721Z,6.10
2018-12-22T03:08:59.703Z,6.10
2018-12-22T03:11:30.120Z,6.10
2018-12-22T03:14:00.099Z,6.10
2018-12-22T03:16:30.359Z,6.20
2018-12-22T03:19:00.428Z,6.30
2018-12-22T03:21:30.634Z,6.20
2018-12-22T03:24:00.650Z,6.20
2018-12-22T03:26:31.018Z,6.10
2018-12-22T03:29:01.102Z,6.10
2018-12-22T03:31:31.201Z,6.10
2018-12-22T03:34:01.433Z,6.10
2018-12-22T03:36:31.711Z,6.00
2018-12-22T03:39:01.931Z,6.00
2018-12-22T03:41:32.488Z,6.00
2018-12-22T03:44:02.724Z,6.00
2018-12-22T03:46:32.940Z,6.00
2018-12-22T03:49:03.203Z,6.00
2018-12-22T03:51:33.685Z,6.00
2018-12-22T03:54:03.913Z,6.00
2018-12-22T03:56:34.017Z,5.90
2018-12-22T03:59:04.442Z,5.90
2018-12-22T04:01:34.769Z,5.90
2018-12-22T04:04:05.087Z,5.90
2018-12-22T04:06:35.462Z,5.80
2018-12-22T04:09:09.029Z,5.80
2018-12-22T04:11:39.792Z,5.80
2018-12-22T04:14:09.774Z,5.70
2018-12-22T04:16:40.049Z,5.70
2018-12-22T04:19:10.386Z,5.70
2018-12-22T04:21:40.576Z,5.70
2018-12-22T04:24:10.896Z,5.70
2018-12-22T04:26:41.004Z,5.70
2018-12-22T04:29:11.208Z,5.70
2018-12-22T04:31:41.470Z,5.70
2018-12-22T04:34:11.740Z,5.70
2018-12-22T04:36:42.005Z,5.70
2018-12-22T04:39:12.587Z,5.60
2018-12-22T04:41:42.778Z,5.60
2018-12-22T04:44:13.105Z,5.60
2018-12-22T04:46:43.314Z,5.60
2018-12-22T04:49:13.513Z,5.60
2018-12-22T04:51:43.737Z,5.60
2018-12-22T04:54:13.882Z,5.60
2018-12-22T04:56:43.882Z,5.50
2018-12-22T04:59:14.337Z,5.50
2018-12-22T05:01:44.779Z,5.50
2018-12-22T05:04:15.165Z,5.50
2018-12-22T05:06:45.184Z,5.40
2018-12-22T05:09:15.516Z,5.40
2018-12-22T05:11:46.036Z,5.50
2018-12-22T05:14:16.025Z,5.40
2018-12-22T05:16:45.993Z,5.40
2018-12-22T05:19:16.320Z,5.40
2018-12-22T05:21:46.560Z,5.40
2018-12-22T05:24:16.624Z,5.40
2018-12-22T05:26:46.922Z,5.40
2018-12-22T05:29:17.262Z,5.30
2018-12-22T05:31:47.502Z,5.40
2018-12-22T05:34:17.731Z,5.30
2018-12-22T05:36:47.788Z,5.30
2018-12-22T05:39:17.937Z,5.20
2018-12-22T05:41:48.191Z,5.20
2018-12-22T05:44:18.572Z,5.10
2018-12-22T05:46:48.628Z,5.10
2018-12-22T05:49:18.958Z,5.10
2018-12-22T05:51:49.145Z,5.10
2018-12-22T05:54:19.243Z,5.10
2018-12-22T05:56:49.421Z,5.20
2018-12-22T05:59:19.825Z,5.30
2018-12-22T06:01:49.899Z,5.40
2018-12-22T06:04:20.092Z,5.40
2018-12-22T06:06:50.359Z,5.50
2018-12-22T06:09:20.617Z,5.50
2018-12-22T06:11:51.327Z,5.60
2018-12-22T06:14:22.035Z,5.60
2018-12-22T06:16:52.402Z,5.60
2018-12-22T06:19:22.747Z,5.80
2018-12-22T06:21:53.394Z,6.00
2018-12-22T06:24:23.576Z,6.10
2018-12-22T06:26:53.891Z,6.20
2018-12-22T06:29:24.313Z,6.20
2018-12-22T06:31:54.463Z,6.30
2018-12-22T06:34:24.918Z,6.30
2018-12-22T06:36:55.011Z,6.40
2018-12-22T06:39:25.252Z,6.40
2018-12-22T06:41:55.378Z,6.40
2018-12-22T06:44:25.570Z,6.50
2018-12-22T06:46:55.710Z,6.50
2018-12-22T06:49:26.333Z,6.50
2018-12-22T06:51:56.419Z,6.60
2018-12-22T06:54:26.749Z,6.60
2018-12-22T06:56:57.365Z,6.60
2018-12-22T06:59:28.102Z,6.70
2018-12-22T07:01:58.280Z,6.90
2018-12-22T07:04:28.976Z,7.00
2018-12-22T07:06:59.143Z,7.10
2018-12-22T07:09:29.435Z,7.40
2018-12-22T07:12:00.387Z,7.60
2018-12-22T07:14:30.900Z,7.70
2018-12-22T07:17:01.122Z,7.90
2018-12-22T07:19:31.645Z,8.10
2018-12-22T07:22:02.307Z,8.20
2018-12-22T07:24:32.509Z,8.20
2018-12-22T07:27:02.848Z,8.30
2018-12-22T07:29:33.228Z,8.30
2018-12-22T07:32:03.719Z,8.20
2018-12-22T07:34:33.800Z,8.20
2018-12-22T07:37:04.026Z,8.40
2018-12-22T07:39:34.466Z,8.50
2018-12-22T07:42:04.679Z,8.60
2018-12-22T07:44:34.740Z,8.80
2018-12-22T07:47:04.931Z,9.10
2018-12-22T07:49:35.169Z,9.30
2018-12-22T07:52:05.351Z,9.50
2018-12-22T07:54:35.762Z,9.60
2018-12-22T07:57:06.016Z,9.60
2018-12-22T07:59:36.331Z,9.70
2018-12-22T08:02:06.396Z,9.70
2018-12-22T08:04:36.632Z,9.70
2018-12-22T08:07:06.842Z,9.80
2018-12-22T08:09:37.277Z,9.80
2018-12-22T08:12:07.666Z,9.80
2018-12-22T08:14:38.163Z,10.00
2018-12-22T08:17:08.340Z,10.10
2018-12-22T08:19:38.784Z,10.20
2018-12-22T08:22:09.077Z,10.10
2018-12-22T08:24:39.235Z,10.10
2018-12-22T08:27:09.514Z,10.20
2018-12-22T08:29:39.943Z,10.20
2018-12-22T08:32:10.603Z,10.10
2018-12-22T08:34:40.780Z,10.10
2018-12-22T08:37:10.940Z,10.00
2018-12-22T08:39:41.205Z,10.00
2018-12-22T08:42:11.810Z,10.00
2018-12-22T08:44:42.926Z,10.20
2018-12-22T08:47:13.530Z,10.40
2018-12-22T08:49:44.239Z,10.60
2018-12-22T08:52:16.675Z,10.50
2018-12-22T08:54:47.737Z,10.40
2018-12-22T08:57:18.262Z,10.40
2018-12-22T08:59:48.554Z,10.60
2018-12-22T09:02:18.741Z,10.70
2018-12-22T09:04:49.031Z,10.80
2018-12-22T09:07:19.424Z,10.80
2018-12-22T09:09:49.748Z,11.00
2018-12-22T09:12:19.984Z,10.90
2018-12-22T09:14:50.053Z,10.90
2018-12-22T09:17:20.723Z,11.10
2018-12-22T09:19:51.153Z,11.10
2018-12-22T09:22:22.573Z,11.10
2018-12-22T09:24:53.223Z,11.20
2018-12-22T09:27:23.605Z,11.50
2018-12-22T09:29:53.940Z,11.90
2018-12-22T09:32:24.184Z,11.60
2018-12-22T09:34:54.828Z,12.00
2018-12-22T09:37:25.014Z,11.10
2018-12-22T09:39:55.125Z,11.50
2018-12-22T09:42:25.298Z,11.50
2018-12-22T09:44:55.663Z,11.30
2018-12-22T09:47:26.103Z,10.50
2018-12-22T09:49:56.802Z,11.60
2018-12-22T09:52:27.194Z,12.10
2018-12-22T09:54:57.495Z,12.40
2018-12-22T09:57:27.862Z,12.20
2018-12-22T09:59:58.106Z,12.40
2018-12-22T10:02:28.346Z,12.70
2018-12-22T10:04:58.581Z,12.50
2018-12-22T10:07:29.079Z,12.70
2018-12-22T10:09:59.206Z,12.90
2018-12-22T10:12:29.310Z,12.70
2018-12-22T10:14:59.413Z,12.80
2018-12-22T10:17:29.820Z,12.70
2018-12-22T10:20:00.179Z,13.00
2018-12-22T10:22:30.500Z,12.50
2018-12-22T10:25:00.945Z,12.40
2018-12-22T10:27:31.216Z,12.40
2018-12-22T10:30:01.803Z,11.60
2018-12-22T10:32:33.108Z,11.40
2018-12-22T10:35:03.459Z,11.50
2018-12-22T10:37:33.850Z,10.90
2018-12-22T10:40:04.572Z,10.70
2018-12-22T10:42:34.899Z,10.70
2018-12-22T10:45:05.582Z,10.70
2018-12-22T10:47:35.991Z,10.50
2018-12-22T10:50:06.257Z,10.30
2018-12-22T10:52:37.786Z,10.00
2018-12-22T10:55:09.329Z,10.00
2018-12-22T10:57:40.496Z,10.00
2018-12-22T11:00:14.140Z,9.80
2018-12-22T11:02:44.533Z,9.80
2018-12-22T11:05:16.471Z,9.80
2018-12-22T11:07:47.234Z,9.70
2018-12-22T11:10:22.689Z,9.80
2018-12-22T11:12:55.328Z,9.80
2018-12-22T11:15:25.826Z,9.80
2018-12-22T11:17:55.953Z,9.80
2018-12-22T11:20:26.235Z,9.70
2018-12-22T11:22:56.814Z,9.70
2018-12-22T11:25:27.960Z,9.70
2018-12-22T11:27:58.760Z,9.70
2018-12-22T11:30:40.224Z,9.70
2018-12-22T11:33:10.555Z,9.70
2018-12-22T11:35:41.084Z,9.70
2018-12-22T11:38:11.699Z,9.80
2018-12-22T11:40:42.211Z,9.80
2018-12-22T11:43:12.579Z,9.80
2018-12-22T11:45:43.439Z,9.80
2018-12-22T11:48:39.323Z,9.70
2018-12-22T11:51:09.686Z,9.70
2018-12-22T11:53:40.110Z,9.70
2018-12-22T11:56:10.677Z,9.70
2018-12-22T11:58:41.175Z,9.70
2018-12-22T12:01:11.995Z,9.60
2018-12-22T12:03:42.556Z,9.70
2018-12-22T12:06:12.821Z,9.70
2018-12-22T12:08:44.165Z,9.80
2018-12-22T12:11:14.713Z,9.80
2018-12-22T12:13:44.967Z,9.90
2018-12-22T12:16:35.287Z,9.70
2018-12-22T12:19:23.585Z,9.80
2018-12-22T12:21:53.986Z,10.00
2018-12-22T12:24:24.437Z,10.10
2018-12-22T12:26:54.888Z,10.40
2018-12-22T12:29:25.224Z,10.60
2018-12-22T12:31:55.660Z,10.50
2018-12-22T12:34:25.985Z,10.30
2018-12-22T12:36:56.256Z,10.30
2018-12-22T12:39:26.619Z,10.30
2018-12-22T12:41:57.148Z,10.50
2018-12-22T12:44:27.690Z,10.40
2018-12-22T12:46:58.186Z,10.20
2018-12-22T12:49:28.529Z,10.10
2018-12-22T12:51:58.877Z,10.00
2018-12-22T12:54:29.208Z,10.20
2018-12-22T12:57:00.700Z,10.20
2018-12-22T12:59:33.229Z,10.20
2018-12-22T13:02:05.328Z,10.10
2018-12-22T13:04:35.649Z,10.00
2018-12-22T13:07:06.155Z,9.90
2018-12-22T13:09:36.529Z,9.80
2018-12-22T13:12:14.865Z,9.80
2018-12-22T13:14:47.243Z,9.70
2018-12-22T13:17:18.970Z,9.60
2018-12-22T13:19:49.479Z,9.70
2018-12-22T13:22:19.878Z,9.70
2018-12-22T13:24:50.485Z,9.70
2018-12-22T13:27:21.053Z,9.70
2018-12-22T13:29:51.312Z,9.60
2018-12-22T13:32:21.622Z,9.60
2018-12-22T13:34:51.934Z,9.50
2018-12-22T13:37:22.368Z,9.50
2018-12-22T13:39:53.108Z,9.40
2018-12-22T13:42:23.846Z,9.50
2018-12-22T13:44:54.764Z,9.50
2018-12-22T13:47:25.166Z,9.40
2018-12-22T13:49:55.851Z,9.40
2018-12-22T13:52:27.401Z,9.40
2018-12-22T13:54:58.025Z,9.30
2018-12-22T13:57:28.430Z,9.20
2018-12-22T13:59:58.862Z,9.10
2018-12-22T14:02:29.388Z,9.00
2018-12-22T14:04:59.665Z,8.90
2018-12-22T14:07:30.125Z,8.80
2018-12-22T14:10:00.602Z,8.70
2018-12-22T14:12:31.044Z,8.70
2018-12-22T14:15:01.424Z,8.60
2018-12-22T14:17:37.348Z,8.50
2018-12-22T14:20:13.782Z,8.40
2018-12-22T14:22:44.890Z,8.30
2018-12-22T14:25:24.386Z,8.30
2018-12-22T14:27:54.936Z,8.30
2018-12-22T14:30:25.404Z,8.20
2018-12-22T14:32:56.139Z,8.10
2018-12-22T14:35:34.942Z,8.10
2018-12-22T14:38:05.532Z,8.00
2018-12-22T14:40:36.333Z,8.00
2018-12-22T14:43:07.154Z,7.90
2018-12-22T14:45:38.571Z,7.90
2018-12-22T14:48:09.032Z,7.80
2018-12-22T14:50:39.491Z,7.70
2018-12-22T14:53:10.020Z,7.70
2018-12-22T14:55:40.747Z,7.60
2018-12-22T14:58:17.889Z,7.60
2018-12-22T15:00:48.628Z,7.60
2018-12-22T15:03:18.800Z,7.50
2018-12-22T15:05:49.230Z,7.40
2018-12-22T15:08:19.755Z,7.40
2018-12-22T15:10:50.370Z,7.30
2018-12-22T15:13:20.668Z,7.20
2018-12-22T15:15:51.186Z,7.00
2018-12-22T15:18:21.466Z,6.90
2018-12-22T15:20:52.154Z,6.80
2018-12-22T15:23:22.573Z,6.70
2018-12-22T15:25:53.133Z,6.70
2018-12-22T15:28:23.413Z,6.60
2018-12-22T15:30:53.930Z,6.50
2018-12-22T15:33:24.365Z,6.50
2018-12-22T15:35:54.822Z,6.50
2018-12-22T15:38:25.317Z,6.40
2018-12-22T15:40:55.877Z,6.40
2018-12-22T15:43:26.474Z,6.40
2018-12-22T15:45:57.147Z,6.40
2018-12-22T15:48:27.700Z,6.50
2018-12-22T15:50:58.151Z,6.40
2018-12-22T15:53:28.575Z,6.40
2018-12-22T15:55:59.413Z,6.30
2018-12-22T15:58:31.026Z,6.40
2018-12-22T16:01:01.384Z,6.40
2018-12-22T16:03:31.743Z,6.40
2018-12-22T16:06:02.484Z,6.40
2018-12-22T16:08:32.903Z,6.60
2018-12-22T16:11:03.704Z,6.60
2018-12-22T16:13:34.372Z,6.70
2018-12-22T16:16:04.803Z,6.60
2018-12-22T16:18:35.261Z,6.50
2018-12-22T16:21:05.672Z,6.30
2018-12-22T16:23:36.031Z,6.20
2018-12-22T16:26:06.512Z,6.20
2018-12-22T16:28:42.004Z,6.20
2018-12-22T16:31:12.647Z,6.20
2018-12-22T16:33:43.026Z,6.30
2018-12-22T16:36:13.425Z,6.40
2018-12-22T16:38:43.761Z,6.50
2018-12-22T16:41:14.036Z,6.50
2018-12-22T16:43:44.820Z,6.50
2018-12-22T16:46:15.109Z,6.70
2018-12-22T16:48:47.334Z,6.70
2018-12-22T16:51:17.713Z,6.70
2018-12-22T16:53:48.574Z,6.70
2018-12-22T16:56:19.009Z,6.70
2018-12-22T16:58:51.118Z,6.60
2018-12-22T17:01:35.848Z,6.50
2018-12-22T17:04:06.363Z,6.50
2018-12-22T17:06:38.129Z,6.50
2018-12-22T17:09:11.012Z,6.50
2018-12-22T17:11:41.712Z,6.40
2018-12-22T17:14:12.989Z,6.40
2018-12-22T17:16:46.666Z,6.40
2018-12-22T17:19:17.434Z,6.40
2018-12-22T17:22:04.447Z,6.30
2018-12-22T17:25:20.520Z,6.10
2018-12-22T17:27:50.978Z,6.00
2018-12-22T17:30:21.296Z,5.80
2018-12-22T17:32:51.587Z,5.80
2018-12-22T17:35:22.009Z,5.70
2018-12-22T17:37:53.518Z,5.70
2018-12-22T17:40:24.078Z,5.80
2018-12-22T17:42:54.763Z,5.90
2018-12-22T17:45:25.187Z,6.10
2018-12-22T17:47:55.772Z,6.20
2018-12-22T17:53:01.241Z,6.20
2018-12-22T17:55:31.748Z,5.80
2018-12-22T17:58:02.374Z,5.70
2018-12-22T18:00:32.879Z,5.60
2018-12-22T18:03:03.790Z,5.50
2018-12-22T18:05:34.648Z,5.60
2018-12-22T18:08:05.255Z,5.60
2018-12-22T18:10:36.007Z,5.60
2018-12-22T18:13:06.639Z,5.60
2018-12-22T18:15:37.003Z,5.50
2018-12-22T18:18:07.375Z,5.40
2018-12-22T18:20:37.810Z,5.30
2018-12-22T18:23:08.555Z,5.30
2018-12-22T18:25:39.085Z,5.20
2018-12-22T18:28:09.716Z,5.20
2018-12-22T18:30:40.121Z,5.20
2018-12-22T18:33:10.905Z,5.40
2018-12-22T18:35:42.844Z,5.60
2018-12-22T18:38:13.356Z,5.50
2018-12-22T18:40:43.803Z,5.50
2018-12-22T18:43:14.133Z,5.40
2018-12-22T18:45:44.748Z,5.20
2018-12-22T18:48:15.120Z,5.10
2018-12-22T18:50:46.102Z,5.00
2018-12-22T18:53:16.523Z,4.90
2018-12-22T18:55:47.111Z,4.90
2018-12-22T18:58:17.546Z,4.90
2018-12-22T19:00:48.069Z,4.90
2018-12-22T19:03:18.741Z,4.80
2018-12-22T19:05:49.280Z,4.70
2018-12-22T19:08:20.429Z,4.70
2018-12-22T19:10:55.580Z,4.60
2018-12-22T19:13:25.935Z,4.60
2018-12-22T19:15:56.427Z,4.50
2018-12-22T19:18:26.809Z,4.50
2018-12-22T19:21:03.641Z,4.40
2018-12-22T19:23:33.997Z,4.50
2018-12-22T19:26:04.607Z,4.70
2018-12-22T19:28:35.253Z,4.90
2018-12-22T19:31:06.134Z,5.00
2018-12-22T19:33:36.587Z,5.10
2018-12-22T19:36:07.279Z,5.10
2018-12-22T19:38:38.107Z,5.10
2018-12-22T19:41:08.630Z,4.90
2018-12-22T19:43:39.068Z,4.80
2018-12-22T19:46:09.336Z,4.80
2018-12-22T19:48:39.758Z,4.80
2018-12-22T19:51:10.373Z,4.80
2018-12-22T19:53:42.286Z,4.90
2018-12-22T19:56:12.992Z,4.80
2018-12-22T19:58:43.532Z,4.80
2018-12-22T20:01:14.263Z,4.70
2018-12-22T20:03:46.031Z,4.60
2018-12-22T20:06:16.831Z,4.60
2018-12-22T20:08:47.458Z,4.60
2018-12-22T20:11:18.176Z,4.50
2018-12-22T20:13:48.736Z,4.50
2018-12-22T20:16:19.159Z,4.70
2018-12-22T20:18:49.911Z,4.80
2018-12-22T20:21:20.467Z,4.70
2018-12-22T20:26:25.979Z,4.60
2018-12-22T20:28:56.619Z,4.60
2018-12-22T20:31:27.193Z,4.40
2018-12-22T20:33:58.004Z,4.30
2018-12-22T20:36:28.449Z,4.10
2018-12-22T20:38:59.026Z,4.10
2018-12-22T20:41:29.619Z,4.00
2018-12-22T20:43:59.815Z,3.90
2018-12-22T20:46:30.326Z,4.00
2018-12-22T20:49:01.758Z,4.00
2018-12-22T20:51:32.200Z,4.10
2018-12-22T20:56:36.897Z,4.00
2018-12-22T20:59:07.542Z,3.90
2018-12-22T21:01:37.840Z,3.90
2018-12-22T21:04:08.519Z,3.80
2018-12-22T21:06:38.849Z,3.80
2018-12-22T21:09:09.741Z,3.90
2018-12-22T21:11:40.260Z,4.00
2018-12-22T21:14:12.846Z,4.00
2018-12-22T21:16:43.303Z,4.10
2018-12-22T21:19:13.969Z,4.20
2018-12-22T21:21:44.406Z,4.20
2018-12-22T21:24:14.822Z,4.20
2018-12-22T21:26:45.345Z,4.20
2018-12-22T21:29:17.059Z,4.20
2018-12-22T21:31:47.316Z,4.20
2018-12-22T21:34:17.763Z,4.30
2018-12-22T21:36:48.305Z,4.40
2018-12-22T21:39:18.502Z,4.50
2018-12-22T21:41:48.908Z,4.40
2018-12-22T21:44:19.118Z,4.50
2018-12-22T21:46:49.725Z,4.40
2018-12-22T21:49:20.216Z,4.30
2018-12-22T21:51:50.552Z,4.20
2018-12-22T21:54:20.891Z,4.10
2018-12-22T21:56:51.107Z,4.00
2018-12-22T21:59:21.559Z,3.90
2018-12-22T22:01:52.026Z,3.80
2018-12-22T22:04:22.323Z,3.70
2018-12-22T22:06:54.608Z,3.70
2018-12-22T22:09:25.270Z,3.60
2018-12-22T22:11:56.086Z,3.60
2018-12-22T22:14:26.554Z,3.60
2018-12-22T22:16:56.914Z,3.60
2018-12-22T22:19:27.271Z,3.60
2018-12-22T22:21:57.880Z,3.70
2018-12-22T22:24:28.677Z,3.80
2018-12-22T22:26:59.026Z,4.00
2018-12-22T22:29:29.384Z,4.00
2018-12-22T22:31:59.706Z,3.90
2018-12-22T22:34:30.089Z,3.80
2018-12-22T22:37:00.755Z,3.70
2018-12-22T22:39:31.092Z,3.70
2018-12-22T22:42:01.833Z,3.60
2018-12-22T22:44:32.659Z,3.60
2018-12-22T22:47:02.950Z,3.50
2018-12-22T22:49:33.039Z,3.50
2018-12-22T22:52:03.349Z,3.50
2018-12-22T22:54:33.725Z,3.40
2018-12-22T22:57:04.071Z,3.40
2018-12-22T22:59:34.464Z,3.40
2018-12-22T23:02:04.993Z,3.30
2018-12-22T23:04:35.268Z,3.30
2018-12-22T23:07:05.578Z,3.30
2018-12-22T23:09:36.096Z,3.20
2018-12-22T23:12:06.332Z,3.20
2018-12-22T23:14:36.645Z,3.30
2018-12-22T23:17:09.064Z,3.40
2018-12-22T23:19:39.457Z,3.50
2018-12-22T23:22:10.071Z,3.60
2018-12-22T23:24:40.535Z,3.60
2018-12-22T23:27:11.094Z,3.60
2018-12-22T23:29:41.213Z,3.80
2018-12-22T23:32:11.541Z,3.90
2018-12-22T23:34:42.063Z,4.00
2018-12-22T23:37:14.039Z,4.00
2018-12-22T23:39:44.214Z,4.00
2018-12-22T23:42:14.507Z,3.90
2018-12-22T23:44:44.900Z,3.90
2018-12-22T23:47:15.237Z,3.90
2018-12-22T23:49:45.628Z,4.00
2018-12-22T23:52:15.704Z,4.10
2018-12-22T23:54:46.248Z,4.00
2018-12-22T23:57:16.478Z,3.90
2018-12-22T23:59:46.870Z,3.80
